sensor_id;sensor_type;location;lat;lon;timestamp;P1;durP1;ratioP1;P2;durP2;ratioP2
39846;SDS011;25517;52.422;10.782;2024-02-14T00:00:32;4.40;;;2.15;;
39846;SDS011;25517;52.422;10.782;2024-02-14T00:02:58;4.55;;;2.10;;
39846;SDS011;25517;52.422;10.782;2024-02-14T00:05:24;5.88;;;2.15;;
39846;SDS011;25517;52.422;10.782;2024-02-14T00:07:51;6.38;;;2.20;;
39846;SDS011;25517;52.422;10.782;2024-02-14T00:10:16;2.28;;;1.92;;
39846;SDS011;25517;52.422;10.782;2024-02-14T00:12:42;3.22;;;2.10;;
39846;SDS011;25517;52.422;10.782;2024-02-14T00:15:08;4.95;;;2.63;;
39846;SDS011;25517;52.422;10.782;2024-02-14T00:17:34;4.70;;;1.90;;
39846;SDS011;25517;52.422;10.782;2024-02-14T00:20:00;7.70;;;1.98;;
39846;SDS011;25517;52.422;10.782;2024-02-14T00:22:28;6.68;;;2.63;;
39846;SDS011;25517;52.422;10.782;2024-02-14T00:24:53;3.80;;;2.22;;
39846;SDS011;25517;52.422;10.782;2024-02-14T00:27:19;4.55;;;2.28;;
39846;SDS011;25517;52.422;10.782;2024-02-14T00:29:44;5.38;;;2.28;;
39846;SDS011;25517;52.422;10.782;2024-02-14T00:32:12;5.97;;;2.63;;
39846;SDS011;25517;52.422;10.782;2024-02-14T00:34:38;5.95;;;2.30;;
39846;SDS011;25517;52.422;10.782;2024-02-14T00:37:03;6.00;;;1.92;;
39846;SDS011;25517;52.422;10.782;2024-02-14T00:39:29;8.45;;;2.50;;
39846;SDS011;25517;52.422;10.782;2024-02-14T00:41:55;8.07;;;2.67;;
39846;SDS011;25517;52.422;10.782;2024-02-14T00:44:21;4.53;;;2.50;;
39846;SDS011;25517;52.422;10.782;2024-02-14T00:46:46;12.43;;;2.45;;
39846;SDS011;25517;52.422;10.782;2024-02-14T00:49:13;2.67;;;2.20;;
39846;SDS011;25517;52.422;10.782;2024-02-14T00:51:39;5.32;;;2.60;;
39846;SDS011;25517;52.422;10.782;2024-02-14T00:54:05;4.93;;;2.35;;
39846;SDS011;25517;52.422;10.782;2024-02-14T00:56:31;5.55;;;2.85;;
39846;SDS011;25517;52.422;10.782;2024-02-14T00:58:57;4.28;;;2.47;;
39846;SDS011;25517;52.422;10.782;2024-02-14T01:01:22;4.75;;;1.90;;
39846;SDS011;25517;52.422;10.782;2024-02-14T01:03:48;5.85;;;2.10;;
39846;SDS011;25517;52.422;10.782;2024-02-14T01:06:14;3.47;;;2.25;;
39846;SDS011;25517;52.422;10.782;2024-02-14T01:08:40;4.15;;;2.40;;
39846;SDS011;25517;52.422;10.782;2024-02-14T01:11:06;3.75;;;2.20;;
39846;SDS011;25517;52.422;10.782;2024-02-14T01:13:32;3.03;;;1.98;;
39846;SDS011;25517;52.422;10.782;2024-02-14T01:15:58;4.15;;;2.10;;
39846;SDS011;25517;52.422;10.782;2024-02-14T01:18:23;8.18;;;2.65;;
39846;SDS011;25517;52.422;10.782;2024-02-14T01:20:49;4.55;;;2.25;;
39846;SDS011;25517;52.422;10.782;2024-02-14T01:23:15;5.53;;;2.53;;
39846;SDS011;25517;52.422;10.782;2024-02-14T01:25:41;5.97;;;2.40;;
39846;SDS011;25517;52.422;10.782;2024-02-14T01:28:07;4.43;;;2.45;;
39846;SDS011;25517;52.422;10.782;2024-02-14T01:30:33;7.63;;;2.70;;
39846;SDS011;25517;52.422;10.782;2024-02-14T01:33:00;4.43;;;2.13;;
39846;SDS011;25517;52.422;10.782;2024-02-14T01:35:29;7.35;;;2.17;;
39846;SDS011;25517;52.422;10.782;2024-02-14T01:37:55;6.20;;;2.30;;
39846;SDS011;25517;52.422;10.782;2024-02-14T01:40:20;6.85;;;2.55;;
39846;SDS011;25517;52.422;10.782;2024-02-14T01:42:46;5.88;;;2.03;;
39846;SDS011;25517;52.422;10.782;2024-02-14T01:45:12;3.42;;;2.30;;
39846;SDS011;25517;52.422;10.782;2024-02-14T01:47:38;5.22;;;2.05;;
39846;SDS011;25517;52.422;10.782;2024-02-14T01:50:06;6.13;;;2.22;;
39846;SDS011;25517;52.422;10.782;2024-02-14T01:52:36;5.30;;;2.70;;
39846;SDS011;25517;52.422;10.782;2024-02-14T01:55:02;3.10;;;2.20;;
39846;SDS011;25517;52.422;10.782;2024-02-14T01:57:30;4.72;;;2.42;;
39846;SDS011;25517;52.422;10.782;2024-02-14T01:59:56;3.45;;;2.00;;
39846;SDS011;25517;52.422;10.782;2024-02-14T02:02:23;4.78;;;1.90;;
39846;SDS011;25517;52.422;10.782;2024-02-14T02:04:51;7.25;;;2.25;;
39846;SDS011;25517;52.422;10.782;2024-02-14T02:07:17;3.30;;;2.03;;
39846;SDS011;25517;52.422;10.782;2024-02-14T02:09:44;5.10;;;2.05;;
39846;SDS011;25517;52.422;10.782;2024-02-14T02:12:10;3.55;;;2.10;;
39846;SDS011;25517;52.422;10.782;2024-02-14T02:14:35;3.55;;;1.98;;
39846;SDS011;25517;52.422;10.782;2024-02-14T02:17:01;4.85;;;2.05;;
39846;SDS011;25517;52.422;10.782;2024-02-14T02:19:30;2.83;;;2.00;;
39846;SDS011;25517;52.422;10.782;2024-02-14T02:21:57;5.32;;;2.13;;
39846;SDS011;25517;52.422;10.782;2024-02-14T02:24:24;8.60;;;2.85;;
39846;SDS011;25517;52.422;10.782;2024-02-14T02:26:49;4.38;;;2.35;;
39846;SDS011;25517;52.422;10.782;2024-02-14T02:29:15;3.30;;;2.35;;
39846;SDS011;25517;52.422;10.782;2024-02-14T02:31:41;5.82;;;2.00;;
39846;SDS011;25517;52.422;10.782;2024-02-14T02:34:06;5.30;;;1.92;;
39846;SDS011;25517;52.422;10.782;2024-02-14T02:36:35;4.28;;;2.15;;
39846;SDS011;25517;52.422;10.782;2024-02-14T02:39:02;4.85;;;2.08;;
39846;SDS011;25517;52.422;10.782;2024-02-14T02:41:29;5.88;;;2.25;;
39846;SDS011;25517;52.422;10.782;2024-02-14T02:43:56;6.70;;;2.35;;
39846;SDS011;25517;52.422;10.782;2024-02-14T02:46:22;4.63;;;2.22;;
39846;SDS011;25517;52.422;10.782;2024-02-14T02:48:48;4.80;;;2.25;;
39846;SDS011;25517;52.422;10.782;2024-02-14T02:51:15;4.88;;;2.85;;
39846;SDS011;25517;52.422;10.782;2024-02-14T02:53:42;7.38;;;2.90;;
39846;SDS011;25517;52.422;10.782;2024-02-14T02:56:08;5.32;;;2.65;;
39846;SDS011;25517;52.422;10.782;2024-02-14T02:58:33;7.25;;;2.90;;
39846;SDS011;25517;52.422;10.782;2024-02-14T03:00:59;4.10;;;3.40;;
39846;SDS011;25517;52.422;10.782;2024-02-14T03:03:25;4.97;;;2.90;;
39846;SDS011;25517;52.422;10.782;2024-02-14T03:05:52;4.68;;;2.60;;
39846;SDS011;25517;52.422;10.782;2024-02-14T03:08:18;8.60;;;2.88;;
39846;SDS011;25517;52.422;10.782;2024-02-14T03:10:44;7.07;;;3.33;;
39846;SDS011;25517;52.422;10.782;2024-02-14T03:13:10;3.55;;;2.30;;
39846;SDS011;25517;52.422;10.782;2024-02-14T03:15:39;6.57;;;2.65;;
39846;SDS011;25517;52.422;10.782;2024-02-14T03:18:04;6.80;;;2.42;;
39846;SDS011;25517;52.422;10.782;2024-02-14T03:20:34;4.80;;;2.00;;
39846;SDS011;25517;52.422;10.782;2024-02-14T03:23:01;6.30;;;2.50;;
39846;SDS011;25517;52.422;10.782;2024-02-14T03:25:28;3.83;;;2.55;;
39846;SDS011;25517;52.422;10.782;2024-02-14T03:27:54;7.63;;;2.72;;
39846;SDS011;25517;52.422;10.782;2024-02-14T03:30:22;3.63;;;2.53;;
39846;SDS011;25517;52.422;10.782;2024-02-14T03:32:48;7.43;;;2.70;;
39846;SDS011;25517;52.422;10.782;2024-02-14T03:35:14;4.90;;;2.90;;
39846;SDS011;25517;52.422;10.782;2024-02-14T03:37:41;5.95;;;2.92;;
39846;SDS011;25517;52.422;10.782;2024-02-14T03:40:08;6.30;;;3.30;;
39846;SDS011;25517;52.422;10.782;2024-02-14T03:42:34;8.32;;;3.08;;
39846;SDS011;25517;52.422;10.782;2024-02-14T03:45:00;5.32;;;3.20;;
39846;SDS011;25517;52.422;10.782;2024-02-14T03:47:31;6.07;;;3.45;;
39846;SDS011;25517;52.422;10.782;2024-02-14T03:50:00;6.97;;;3.15;;
39846;SDS011;25517;52.422;10.782;2024-02-14T03:52:29;7.35;;;3.20;;
39846;SDS011;25517;52.422;10.782;2024-02-14T03:54:57;7.53;;;3.25;;
39846;SDS011;25517;52.422;10.782;2024-02-14T03:57:23;5.20;;;3.10;;
39846;SDS011;25517;52.422;10.782;2024-02-14T03:59:50;9.27;;;3.42;;
39846;SDS011;25517;52.422;10.782;2024-02-14T04:02:17;7.43;;;3.42;;
39846;SDS011;25517;52.422;10.782;2024-02-14T04:04:43;12.77;;;4.10;;
39846;SDS011;25517;52.422;10.782;2024-02-14T04:07:11;5.38;;;2.97;;
39846;SDS011;25517;52.422;10.782;2024-02-14T04:09:37;5.22;;;3.38;;
39846;SDS011;25517;52.422;10.782;2024-02-14T04:12:03;7.80;;;3.60;;
39846;SDS011;25517;52.422;10.782;2024-02-14T04:14:28;4.85;;;3.65;;
39846;SDS011;25517;52.422;10.782;2024-02-14T04:16:54;6.88;;;3.40;;
39846;SDS011;25517;52.422;10.782;2024-02-14T04:19:20;5.07;;;3.38;;
39846;SDS011;25517;52.422;10.782;2024-02-14T04:21:46;7.03;;;4.05;;
39846;SDS011;25517;52.422;10.782;2024-02-14T04:24:11;6.18;;;3.05;;
39846;SDS011;25517;52.422;10.782;2024-02-14T04:26:37;5.82;;;3.55;;
39846;SDS011;25517;52.422;10.782;2024-02-14T04:29:03;8.65;;;3.53;;
39846;SDS011;25517;52.422;10.782;2024-02-14T04:31:28;6.72;;;3.70;;
39846;SDS011;25517;52.422;10.782;2024-02-14T04:33:57;13.55;;;3.97;;
39846;SDS011;25517;52.422;10.782;2024-02-14T04:36:23;5.63;;;3.53;;
39846;SDS011;25517;52.422;10.782;2024-02-14T04:38:49;9.20;;;3.88;;
39846;SDS011;25517;52.422;10.782;2024-02-14T04:41:15;8.93;;;4.30;;
39846;SDS011;25517;52.422;10.782;2024-02-14T04:43:41;12.02;;;4.53;;
39846;SDS011;25517;52.422;10.782;2024-02-14T04:46:07;6.18;;;4.13;;
39846;SDS011;25517;52.422;10.782;2024-02-14T04:48:34;8.25;;;3.92;;
39846;SDS011;25517;52.422;10.782;2024-02-14T04:51:00;11.40;;;4.00;;
39846;SDS011;25517;52.422;10.782;2024-02-14T04:53:26;9.13;;;5.10;;
39846;SDS011;25517;52.422;10.782;2024-02-14T04:55:52;9.00;;;3.92;;
39846;SDS011;25517;52.422;10.782;2024-02-14T04:58:18;6.72;;;4.10;;
39846;SDS011;25517;52.422;10.782;2024-02-14T05:00:44;5.82;;;3.88;;
39846;SDS011;25517;52.422;10.782;2024-02-14T05:03:10;8.70;;;3.85;;
39846;SDS011;25517;52.422;10.782;2024-02-14T05:05:36;8.80;;;4.18;;
39846;SDS011;25517;52.422;10.782;2024-02-14T05:08:02;6.28;;;3.50;;
39846;SDS011;25517;52.422;10.782;2024-02-14T05:10:28;8.77;;;3.90;;
39846;SDS011;25517;52.422;10.782;2024-02-14T05:12:54;9.15;;;4.20;;
39846;SDS011;25517;52.422;10.782;2024-02-14T05:15:19;6.65;;;3.85;;
39846;SDS011;25517;52.422;10.782;2024-02-14T05:17:45;5.45;;;3.78;;
39846;SDS011;25517;52.422;10.782;2024-02-14T05:20:11;7.93;;;4.15;;
39846;SDS011;25517;52.422;10.782;2024-02-14T05:22:37;6.75;;;4.63;;
39846;SDS011;25517;52.422;10.782;2024-02-14T05:25:04;5.80;;;3.90;;
39846;SDS011;25517;52.422;10.782;2024-02-14T05:27:30;7.30;;;4.35;;
39846;SDS011;25517;52.422;10.782;2024-02-14T05:29:56;10.55;;;4.10;;
39846;SDS011;25517;52.422;10.782;2024-02-14T05:32:22;10.02;;;5.25;;
39846;SDS011;25517;52.422;10.782;2024-02-14T05:34:48;9.65;;;4.10;;
39846;SDS011;25517;52.422;10.782;2024-02-14T05:37:14;14.20;;;4.60;;
39846;SDS011;25517;52.422;10.782;2024-02-14T05:39:39;7.75;;;4.25;;
39846;SDS011;25517;52.422;10.782;2024-02-14T05:42:05;8.95;;;4.55;;
39846;SDS011;25517;52.422;10.782;2024-02-14T05:44:31;8.50;;;4.15;;
39846;SDS011;25517;52.422;10.782;2024-02-14T05:46:57;7.57;;;4.85;;
39846;SDS011;25517;52.422;10.782;2024-02-14T05:49:22;10.85;;;5.20;;
39846;SDS011;25517;52.422;10.782;2024-02-14T05:51:48;9.27;;;4.68;;
39846;SDS011;25517;52.422;10.782;2024-02-14T05:54:16;8.90;;;4.22;;
39846;SDS011;25517;52.422;10.782;2024-02-14T05:56:41;13.38;;;5.47;;
39846;SDS011;25517;52.422;10.782;2024-02-14T05:59:06;14.55;;;5.80;;
39846;SDS011;25517;52.422;10.782;2024-02-14T06:01:32;8.60;;;4.90;;
39846;SDS011;25517;52.422;10.782;2024-02-14T06:03:58;9.48;;;5.75;;
39846;SDS011;25517;52.422;10.782;2024-02-14T06:06:24;8.80;;;5.15;;
39846;SDS011;25517;52.422;10.782;2024-02-14T06:08:49;14.75;;;6.00;;
39846;SDS011;25517;52.422;10.782;2024-02-14T06:11:15;11.63;;;5.38;;
39846;SDS011;25517;52.422;10.782;2024-02-14T06:13:41;11.20;;;6.40;;
39846;SDS011;25517;52.422;10.782;2024-02-14T06:16:07;10.82;;;6.93;;
39846;SDS011;25517;52.422;10.782;2024-02-14T06:18:33;10.50;;;5.65;;
39846;SDS011;25517;52.422;10.782;2024-02-14T06:21:00;9.00;;;5.55;;
39846;SDS011;25517;52.422;10.782;2024-02-14T06:23:26;10.20;;;5.65;;
39846;SDS011;25517;52.422;10.782;2024-02-14T06:25:51;12.85;;;6.88;;
39846;SDS011;25517;52.422;10.782;2024-02-14T06:28:18;10.50;;;6.20;;
39846;SDS011;25517;52.422;10.782;2024-02-14T06:30:43;10.27;;;5.93;;
39846;SDS011;25517;52.422;10.782;2024-02-14T06:33:09;17.50;;;8.48;;
39846;SDS011;25517;52.422;10.782;2024-02-14T06:35:35;10.90;;;5.57;;
39846;SDS011;25517;52.422;10.782;2024-02-14T06:38:00;11.13;;;6.07;;
39846;SDS011;25517;52.422;10.782;2024-02-14T06:40:25;13.27;;;5.68;;
39846;SDS011;25517;52.422;10.782;2024-02-14T06:42:52;8.82;;;5.45;;
39846;SDS011;25517;52.422;10.782;2024-02-14T06:45:19;15.30;;;7.40;;
39846;SDS011;25517;52.422;10.782;2024-02-14T06:47:45;8.80;;;5.75;;
39846;SDS011;25517;52.422;10.782;2024-02-14T06:50:10;9.77;;;6.20;;
39846;SDS011;25517;52.422;10.782;2024-02-14T06:52:36;11.48;;;7.05;;
39846;SDS011;25517;52.422;10.782;2024-02-14T06:55:01;13.27;;;6.43;;
39846;SDS011;25517;52.422;10.782;2024-02-14T06:57:28;16.35;;;7.63;;
39846;SDS011;25517;52.422;10.782;2024-02-14T06:59:54;9.00;;;6.00;;
39846;SDS011;25517;52.422;10.782;2024-02-14T07:02:19;15.20;;;6.63;;
39846;SDS011;25517;52.422;10.782;2024-02-14T07:04:46;14.23;;;7.35;;
39846;SDS011;25517;52.422;10.782;2024-02-14T07:07:11;13.32;;;6.40;;
39846;SDS011;25517;52.422;10.782;2024-02-14T07:09:37;13.60;;;6.80;;
39846;SDS011;25517;52.422;10.782;2024-02-14T07:12:04;13.57;;;6.95;;
39846;SDS011;25517;52.422;10.782;2024-02-14T07:14:29;11.30;;;6.93;;
39846;SDS011;25517;52.422;10.782;2024-02-14T07:16:56;18.70;;;7.80;;
39846;SDS011;25517;52.422;10.782;2024-02-14T07:19:21;18.27;;;7.65;;
39846;SDS011;25517;52.422;10.782;2024-02-14T07:21:47;13.02;;;6.88;;
39846;SDS011;25517;52.422;10.782;2024-02-14T07:24:12;15.02;;;7.88;;
39846;SDS011;25517;52.422;10.782;2024-02-14T07:26:38;12.43;;;7.70;;
39846;SDS011;25517;52.422;10.782;2024-02-14T07:29:06;14.40;;;7.30;;
39846;SDS011;25517;52.422;10.782;2024-02-14T07:31:34;19.25;;;7.80;;
39846;SDS011;25517;52.422;10.782;2024-02-14T07:34:00;18.80;;;7.35;;
39846;SDS011;25517;52.422;10.782;2024-02-14T07:36:27;13.20;;;7.72;;
39846;SDS011;25517;52.422;10.782;2024-02-14T07:38:54;17.25;;;7.63;;
39846;SDS011;25517;52.422;10.782;2024-02-14T07:41:19;17.20;;;8.25;;
39846;SDS011;25517;52.422;10.782;2024-02-14T07:43:45;10.65;;;6.97;;
39846;SDS011;25517;52.422;10.782;2024-02-14T07:46:11;19.92;;;8.30;;
39846;SDS011;25517;52.422;10.782;2024-02-14T07:48:37;21.42;;;8.35;;
39846;SDS011;25517;52.422;10.782;2024-02-14T07:51:06;11.73;;;7.47;;
39846;SDS011;25517;52.422;10.782;2024-02-14T07:53:32;11.80;;;7.47;;
39846;SDS011;25517;52.422;10.782;2024-02-14T07:55:58;15.48;;;8.93;;
39846;SDS011;25517;52.422;10.782;2024-02-14T07:58:23;16.48;;;8.40;;
39846;SDS011;25517;52.422;10.782;2024-02-14T08:00:49;19.42;;;9.07;;
39846;SDS011;25517;52.422;10.782;2024-02-14T08:03:14;15.13;;;8.38;;
39846;SDS011;25517;52.422;10.782;2024-02-14T08:05:40;22.30;;;8.95;;
39846;SDS011;25517;52.422;10.782;2024-02-14T08:08:07;20.92;;;9.55;;
39846;SDS011;25517;52.422;10.782;2024-02-14T08:10:33;23.02;;;9.85;;
39846;SDS011;25517;52.422;10.782;2024-02-14T08:13:00;18.20;;;8.77;;
39846;SDS011;25517;52.422;10.782;2024-02-14T08:15:25;16.90;;;8.13;;
39846;SDS011;25517;52.422;10.782;2024-02-14T08:17:51;17.80;;;9.13;;
39846;SDS011;25517;52.422;10.782;2024-02-14T08:20:20;20.35;;;9.88;;
39846;SDS011;25517;52.422;10.782;2024-02-14T08:22:46;17.75;;;8.35;;
39846;SDS011;25517;52.422;10.782;2024-02-14T08:25:11;20.88;;;9.07;;
39846;SDS011;25517;52.422;10.782;2024-02-14T08:27:37;23.40;;;8.63;;
39846;SDS011;25517;52.422;10.782;2024-02-14T08:30:02;20.30;;;8.40;;
39846;SDS011;25517;52.422;10.782;2024-02-14T08:32:31;15.02;;;8.10;;
39846;SDS011;25517;52.422;10.782;2024-02-14T08:34:58;16.27;;;8.35;;
39846;SDS011;25517;52.422;10.782;2024-02-14T08:37:23;15.05;;;8.63;;
39846;SDS011;25517;52.422;10.782;2024-02-14T08:39:49;25.83;;;9.13;;
39846;SDS011;25517;52.422;10.782;2024-02-14T08:42:15;15.45;;;8.52;;
39846;SDS011;25517;52.422;10.782;2024-02-14T08:44:41;16.92;;;9.55;;
39846;SDS011;25517;52.422;10.782;2024-02-14T08:47:06;24.83;;;9.57;;
39846;SDS011;25517;52.422;10.782;2024-02-14T08:49:32;18.23;;;9.52;;
39846;SDS011;25517;52.422;10.782;2024-02-14T08:51:58;17.67;;;8.13;;
39846;SDS011;25517;52.422;10.782;2024-02-14T08:54:24;21.17;;;7.47;;
39846;SDS011;25517;52.422;10.782;2024-02-14T08:56:50;16.25;;;8.18;;
39846;SDS011;25517;52.422;10.782;2024-02-14T08:59:18;19.73;;;7.28;;
39846;SDS011;25517;52.422;10.782;2024-02-14T09:01:44;12.93;;;6.85;;
39846;SDS011;25517;52.422;10.782;2024-02-14T09:04:10;12.20;;;6.38;;
39846;SDS011;25517;52.422;10.782;2024-02-14T09:06:36;22.38;;;7.30;;
39846;SDS011;25517;52.422;10.782;2024-02-14T09:09:04;11.15;;;6.13;;
39846;SDS011;25517;52.422;10.782;2024-02-14T09:11:29;14.82;;;6.95;;
39846;SDS011;25517;52.422;10.782;2024-02-14T09:13:56;14.18;;;6.55;;
39846;SDS011;25517;52.422;10.782;2024-02-14T09:16:27;12.07;;;6.78;;
39846;SDS011;25517;52.422;10.782;2024-02-14T09:18:53;10.00;;;5.70;;
39846;SDS011;25517;52.422;10.782;2024-02-14T09:21:18;11.25;;;6.13;;
39846;SDS011;25517;52.422;10.782;2024-02-14T09:23:46;12.60;;;6.35;;
39846;SDS011;25517;52.422;10.782;2024-02-14T09:26:12;10.88;;;6.50;;
39846;SDS011;25517;52.422;10.782;2024-02-14T09:28:40;13.57;;;5.95;;
39846;SDS011;25517;52.422;10.782;2024-02-14T09:31:05;10.98;;;5.32;;
39846;SDS011;25517;52.422;10.782;2024-02-14T09:33:31;9.95;;;5.45;;
39846;SDS011;25517;52.422;10.782;2024-02-14T09:35:56;16.40;;;6.28;;
39846;SDS011;25517;52.422;10.782;2024-02-14T09:38:22;14.18;;;5.78;;
39846;SDS011;25517;52.422;10.782;2024-02-14T09:40:48;9.85;;;5.40;;
39846;SDS011;25517;52.422;10.782;2024-02-14T09:43:27;10.68;;;5.68;;
39846;SDS011;25517;52.422;10.782;2024-02-14T09:45:58;15.68;;;5.07;;
39846;SDS011;25517;52.422;10.782;2024-02-14T09:48:24;7.57;;;4.88;;
39846;SDS011;25517;52.422;10.782;2024-02-14T09:50:51;11.93;;;5.88;;
39846;SDS011;25517;52.422;10.782;2024-02-14T09:53:18;10.48;;;5.68;;
39846;SDS011;25517;52.422;10.782;2024-02-14T09:55:45;12.23;;;5.70;;
39846;SDS011;25517;52.422;10.782;2024-02-14T09:58:11;14.35;;;5.47;;
39846;SDS011;25517;52.422;10.782;2024-02-14T10:00:38;15.32;;;7.32;;
39846;SDS011;25517;52.422;10.782;2024-02-14T10:03:03;11.07;;;5.25;;
39846;SDS011;25517;52.422;10.782;2024-02-14T10:05:29;11.65;;;5.28;;
39846;SDS011;25517;52.422;10.782;2024-02-14T10:07:56;8.90;;;5.70;;
39846;SDS011;25517;52.422;10.782;2024-02-14T10:10:22;13.23;;;6.25;;
39846;SDS011;25517;52.422;10.782;2024-02-14T10:12:48;12.93;;;6.32;;
39846;SDS011;25517;52.422;10.782;2024-02-14T10:15:14;12.40;;;6.30;;
39846;SDS011;25517;52.422;10.782;2024-02-14T10:17:39;13.98;;;6.32;;
39846;SDS011;25517;52.422;10.782;2024-02-14T10:20:08;15.02;;;6.88;;
39846;SDS011;25517;52.422;10.782;2024-02-14T10:22:34;13.45;;;6.75;;
39846;SDS011;25517;52.422;10.782;2024-02-14T10:25:01;16.55;;;6.90;;
39846;SDS011;25517;52.422;10.782;2024-02-14T10:27:29;13.10;;;6.82;;
39846;SDS011;25517;52.422;10.782;2024-02-14T10:29:58;12.38;;;6.28;;
39846;SDS011;25517;52.422;10.782;2024-02-14T10:32:24;12.77;;;6.65;;
39846;SDS011;25517;52.422;10.782;2024-02-14T10:34:50;10.77;;;6.55;;
39846;SDS011;25517;52.422;10.782;2024-02-14T10:37:16;16.80;;;7.63;;
39846;SDS011;25517;52.422;10.782;2024-02-14T10:39:43;13.60;;;6.95;;
39846;SDS011;25517;52.422;10.782;2024-02-14T10:42:11;10.00;;;6.40;;
39846;SDS011;25517;52.422;10.782;2024-02-14T10:44:38;10.13;;;5.93;;
39846;SDS011;25517;52.422;10.782;2024-02-14T10:47:03;11.63;;;6.35;;
39846;SDS011;25517;52.422;10.782;2024-02-14T10:49:35;11.23;;;6.35;;
39846;SDS011;25517;52.422;10.782;2024-02-14T10:52:03;11.65;;;6.55;;
39846;SDS011;25517;52.422;10.782;2024-02-14T10:54:32;10.05;;;5.82;;
39846;SDS011;25517;52.422;10.782;2024-02-14T10:57:01;11.70;;;6.07;;
39846;SDS011;25517;52.422;10.782;2024-02-14T10:59:37;10.48;;;5.55;;
39846;SDS011;25517;52.422;10.782;2024-02-14T11:02:07;13.25;;;6.93;;
39846;SDS011;25517;52.422;10.782;2024-02-14T11:04:33;10.63;;;6.63;;
39846;SDS011;25517;52.422;10.782;2024-02-14T11:06:58;13.00;;;6.80;;
39846;SDS011;25517;52.422;10.782;2024-02-14T11:09:33;11.95;;;6.65;;
39846;SDS011;25517;52.422;10.782;2024-02-14T11:12:01;14.05;;;7.25;;
39846;SDS011;25517;52.422;10.782;2024-02-14T11:14:34;13.85;;;8.43;;
39846;SDS011;25517;52.422;10.782;2024-02-14T11:17:00;12.70;;;8.18;;
39846;SDS011;25517;52.422;10.782;2024-02-14T11:19:33;15.98;;;7.53;;
39846;SDS011;25517;52.422;10.782;2024-02-14T11:22:09;11.90;;;7.88;;
39846;SDS011;25517;52.422;10.782;2024-02-14T11:24:38;14.77;;;7.80;;
39846;SDS011;25517;52.422;10.782;2024-02-14T11:27:08;13.13;;;7.70;;
39846;SDS011;25517;52.422;10.782;2024-02-14T11:29:38;9.85;;;6.40;;
39846;SDS011;25517;52.422;10.782;2024-02-14T11:32:05;11.35;;;8.13;;
39846;SDS011;25517;52.422;10.782;2024-02-14T11:34:34;10.80;;;7.13;;
39846;SDS011;25517;52.422;10.782;2024-02-14T11:37:00;13.15;;;6.82;;
39846;SDS011;25517;52.422;10.782;2024-02-14T11:39:25;9.88;;;6.07;;
39846;SDS011;25517;52.422;10.782;2024-02-14T11:41:51;11.38;;;6.97;;
39846;SDS011;25517;52.422;10.782;2024-02-14T11:44:18;9.00;;;6.18;;
39846;SDS011;25517;52.422;10.782;2024-02-14T11:46:47;9.13;;;5.15;;
39846;SDS011;25517;52.422;10.782;2024-02-14T11:49:12;6.65;;;5.25;;
39846;SDS011;25517;52.422;10.782;2024-02-14T11:51:38;7.80;;;4.30;;
39846;SDS011;25517;52.422;10.782;2024-02-14T11:54:05;11.27;;;4.80;;
39846;SDS011;25517;52.422;10.782;2024-02-14T11:56:38;6.88;;;4.93;;
39846;SDS011;25517;52.422;10.782;2024-02-14T11:59:05;7.20;;;4.28;;
39846;SDS011;25517;52.422;10.782;2024-02-14T12:01:35;8.80;;;5.00;;
39846;SDS011;25517;52.422;10.782;2024-02-14T12:04:03;9.73;;;5.05;;
39846;SDS011;25517;52.422;10.782;2024-02-14T12:06:33;10.18;;;5.20;;
39846;SDS011;25517;52.422;10.782;2024-02-14T12:09:00;8.20;;;4.83;;
39846;SDS011;25517;52.422;10.782;2024-02-14T12:11:37;8.82;;;5.43;;
39846;SDS011;25517;52.422;10.782;2024-02-14T12:14:07;9.98;;;5.18;;
39846;SDS011;25517;52.422;10.782;2024-02-14T12:16:34;7.50;;;5.40;;
39846;SDS011;25517;52.422;10.782;2024-02-14T12:19:05;7.57;;;4.75;;
39846;SDS011;25517;52.422;10.782;2024-02-14T12:21:37;9.18;;;4.53;;
39846;SDS011;25517;52.422;10.782;2024-02-14T12:24:07;7.18;;;4.82;;
39846;SDS011;25517;52.422;10.782;2024-02-14T12:26:37;7.43;;;5.33;;
39846;SDS011;25517;52.422;10.782;2024-02-14T12:29:03;6.30;;;4.50;;
39846;SDS011;25517;52.422;10.782;2024-02-14T12:31:30;7.65;;;5.45;;
39846;SDS011;25517;52.422;10.782;2024-02-14T12:33:56;7.28;;;4.60;;
39846;SDS011;25517;52.422;10.782;2024-02-14T12:36:24;7.60;;;4.70;;
39846;SDS011;25517;52.422;10.782;2024-02-14T12:38:50;10.90;;;4.60;;
39846;SDS011;25517;52.422;10.782;2024-02-14T12:41:18;8.95;;;4.38;;
39846;SDS011;25517;52.422;10.782;2024-02-14T12:43:43;5.40;;;4.50;;
39846;SDS011;25517;52.422;10.782;2024-02-14T12:46:09;6.57;;;4.10;;
39846;SDS011;25517;52.422;10.782;2024-02-14T12:48:35;6.70;;;4.53;;
39846;SDS011;25517;52.422;10.782;2024-02-14T12:51:00;6.60;;;4.57;;
39846;SDS011;25517;52.422;10.782;2024-02-14T12:53:26;11.55;;;4.82;;
39846;SDS011;25517;52.422;10.782;2024-02-14T12:55:52;5.00;;;3.75;;
39846;SDS011;25517;52.422;10.782;2024-02-14T12:58:17;9.65;;;3.80;;
39846;SDS011;25517;52.422;10.782;2024-02-14T13:00:43;8.85;;;3.63;;
39846;SDS011;25517;52.422;10.782;2024-02-14T13:03:09;8.48;;;3.70;;
39846;SDS011;25517;52.422;10.782;2024-02-14T13:05:36;4.65;;;3.53;;
39846;SDS011;25517;52.422;10.782;2024-02-14T13:08:02;10.73;;;3.90;;
39846;SDS011;25517;52.422;10.782;2024-02-14T13:10:28;5.25;;;4.00;;
39846;SDS011;25517;52.422;10.782;2024-02-14T13:12:56;4.97;;;3.92;;
39846;SDS011;25517;52.422;10.782;2024-02-14T13:15:22;3.70;;;3.28;;
39846;SDS011;25517;52.422;10.782;2024-02-14T13:17:47;7.28;;;3.47;;
39846;SDS011;25517;52.422;10.782;2024-02-14T13:20:13;6.55;;;3.53;;
39846;SDS011;25517;52.422;10.782;2024-02-14T13:22:40;10.98;;;4.07;;
39846;SDS011;25517;52.422;10.782;2024-02-14T13:25:06;7.22;;;3.22;;
39846;SDS011;25517;52.422;10.782;2024-02-14T13:27:31;7.55;;;3.72;;
39846;SDS011;25517;52.422;10.782;2024-02-14T13:29:58;4.63;;;3.50;;
39846;SDS011;25517;52.422;10.782;2024-02-14T13:32:24;5.97;;;3.05;;
39846;SDS011;25517;52.422;10.782;2024-02-14T13:34:49;3.80;;;2.97;;
39846;SDS011;25517;52.422;10.782;2024-02-14T13:37:15;3.28;;;2.67;;
39846;SDS011;25517;52.422;10.782;2024-02-14T13:39:40;8.50;;;3.20;;
39846;SDS011;25517;52.422;10.782;2024-02-14T13:42:06;5.68;;;3.17;;
39846;SDS011;25517;52.422;10.782;2024-02-14T13:44:33;3.15;;;2.85;;
39846;SDS011;25517;52.422;10.782;2024-02-14T13:46:58;5.10;;;2.92;;
39846;SDS011;25517;52.422;10.782;2024-02-14T13:49:24;6.85;;;3.00;;
39846;SDS011;25517;52.422;10.782;2024-02-14T13:51:51;5.18;;;3.00;;
39846;SDS011;25517;52.422;10.782;2024-02-14T13:54:20;3.83;;;3.13;;
39846;SDS011;25517;52.422;10.782;2024-02-14T13:56:46;4.43;;;3.47;;
39846;SDS011;25517;52.422;10.782;2024-02-14T13:59:13;6.13;;;2.88;;
39846;SDS011;25517;52.422;10.782;2024-02-14T14:01:39;3.60;;;2.97;;
39846;SDS011;25517;52.422;10.782;2024-02-14T14:04:05;4.13;;;2.40;;
39846;SDS011;25517;52.422;10.782;2024-02-14T14:06:31;4.97;;;2.70;;
39846;SDS011;25517;52.422;10.782;2024-02-14T14:08:57;7.28;;;3.08;;
39846;SDS011;25517;52.422;10.782;2024-02-14T14:11:22;2.97;;;2.45;;
39846;SDS011;25517;52.422;10.782;2024-02-14T14:13:48;4.03;;;2.80;;
39846;SDS011;25517;52.422;10.782;2024-02-14T14:16:14;4.00;;;2.60;;
39846;SDS011;25517;52.422;10.782;2024-02-14T14:18:40;3.95;;;2.35;;
39846;SDS011;25517;52.422;10.782;2024-02-14T14:21:05;4.78;;;2.67;;
39846;SDS011;25517;52.422;10.782;2024-02-14T14:23:31;4.13;;;2.20;;